sensor_id;sensor_type;location;lat;lon;timestamp;P1;P2;P0
55591;PMS5003;41454;53.396;-1.510;2022-11-14T00:00:32;58;50;
55591;PMS5003;41454;53.396;-1.510;2022-11-14T00:03:48;59;57;
55591;PMS5003;41454;53.396;-1.510;2022-11-14T00:06:15;69;57;
55591;PMS5003;41454;53.396;-1.510;2022-11-14T00:08:41;62;52;
55591;PMS5003;41454;53.396;-1.510;2022-11-14T00:11:09;62;53;
55591;PMS5003;41454;53.396;-1.510;2022-11-14T00:15:32;60;56;
55591;PMS5003;41454;53.396;-1.510;2022-11-14T00:17:59;66;56;
55591;PMS5003;41454;53.396;-1.510;2022-11-14T00:20:26;60;54;
55591;PMS5003;41454;53.396;-1.510;2022-11-14T00:22:53;63;60;
55591;PMS5003;41454;53.396;-1.510;2022-11-14T00:25:20;57;51;
55591;PMS5003;41454;53.396;-1.510;2022-11-14T00:27:47;58;55;
55591;PMS5003;41454;53.396;-1.510;2022-11-14T00:30:14;66;56;
55591;PMS5003;41454;53.396;-1.510;2022-11-14T00:32:41;58;53;
55591;PMS5003;41454;53.396;-1.510;2022-11-14T00:35:09;57;50;
55591;PMS5003;41454;53.396;-1.510;2022-11-14T00:37:36;57;50;
55591;PMS5003;41454;53.396;-1.510;2022-11-14T00:40:04;57;54;
55591;PMS5003;41454;53.396;-1.510;2022-11-14T00:42:31;54;49;
55591;PMS5003;41454;53.396;-1.510;2022-11-14T00:44:59;57;49;
55591;PMS5003;41454;53.396;-1.510;2022-11-14T00:47:26;59;52;
55591;PMS5003;41454;53.396;-1.510;2022-11-14T00:49:53;55;52;
55591;PMS5003;41454;53.396;-1.510;2022-11-14T00:52:20;55;51;
55591;PMS5003;41454;53.396;-1.510;2022-11-14T00:54:48;52;42;
55591;PMS5003;41454;53.396;-1.510;2022-11-14T00:57:15;65;59;
55591;PMS5003;41454;53.396;-1.510;2022-11-14T00:59:43;62;56;
55591;PMS5003;41454;53.396;-1.510;2022-11-14T01:02:10;56;52;
55591;PMS5003;41454;53.396;-1.510;2022-11-14T01:04:37;62;52;
55591;PMS5003;41454;53.396;-1.510;2022-11-14T01:07:20;58;52;
55591;PMS5003;41454;53.396;-1.510;2022-11-14T01:09:47;69;59;
55591;PMS5003;41454;53.396;-1.510;2022-11-14T01:12:14;57;55;
55591;PMS5003;41454;53.396;-1.510;2022-11-14T01:14:41;57;52;
55591;PMS5003;41454;53.396;-1.510;2022-11-14T01:17:08;56;55;
55591;PMS5003;41454;53.396;-1.510;2022-11-14T01:19:36;62;55;
55591;PMS5003;41454;53.396;-1.510;2022-11-14T01:22:04;56;47;
55591;PMS5003;41454;53.396;-1.510;2022-11-14T01:24:31;59;50;
55591;PMS5003;41454;53.396;-1.510;2022-11-14T01:26:59;54;48;
55591;PMS5003;41454;53.396;-1.510;2022-11-14T01:29:26;51;46;
55591;PMS5003;41454;53.396;-1.510;2022-11-14T01:31:54;56;53;
55591;PMS5003;41454;53.396;-1.510;2022-11-14T01:34:21;65;56;
55591;PMS5003;41454;53.396;-1.510;2022-11-14T01:36:48;63;53;
55591;PMS5003;41454;53.396;-1.510;2022-11-14T01:39:16;62;61;
55591;PMS5003;41454;53.396;-1.510;2022-11-14T01:41:43;59;52;
55591;PMS5003;41454;53.396;-1.510;2022-11-14T01:44:12;62;59;
55591;PMS5003;41454;53.396;-1.510;2022-11-14T01:46:40;53;46;
55591;PMS5003;41454;53.396;-1.510;2022-11-14T01:49:13;67;61;
55591;PMS5003;41454;53.396;-1.510;2022-11-14T01:51:45;66;61;
55591;PMS5003;41454;53.396;-1.510;2022-11-14T01:54:15;57;54;
55591;PMS5003;41454;53.396;-1.510;2022-11-14T01:56:49;67;61;
55591;PMS5003;41454;53.396;-1.510;2022-11-14T01:59:22;68;60;
55591;PMS5003;41454;53.396;-1.510;2022-11-14T02:01:53;70;64;
55591;PMS5003;41454;53.396;-1.510;2022-11-14T02:04:24;73;62;
55591;PMS5003;41454;53.396;-1.510;2022-11-14T02:06:54;61;56;
55591;PMS5003;41454;53.396;-1.510;2022-11-14T02:09:25;62;57;
55591;PMS5003;41454;53.396;-1.510;2022-11-14T02:11:54;60;53;
55591;PMS5003;41454;53.396;-1.510;2022-11-14T02:14:24;64;60;
55591;PMS5003;41454;53.396;-1.510;2022-11-14T02:16:52;68;59;
55591;PMS5003;41454;53.396;-1.510;2022-11-14T02:19:20;71;54;
55591;PMS5003;41454;53.396;-1.510;2022-11-14T02:21:47;68;60;
55591;PMS5003;41454;53.396;-1.510;2022-11-14T02:24:15;73;62;
55591;PMS5003;41454;53.396;-1.510;2022-11-14T02:26:42;61;58;
55591;PMS5003;41454;53.396;-1.510;2022-11-14T02:29:09;71;60;
55591;PMS5003;41454;53.396;-1.510;2022-11-14T02:31:37;73;61;
55591;PMS5003;41454;53.396;-1.510;2022-11-14T02:34:04;65;60;
55591;PMS5003;41454;53.396;-1.510;2022-11-14T02:36:32;64;58;
55591;PMS5003;41454;53.396;-1.510;2022-11-14T02:39:03;64;60;
55591;PMS5003;41454;53.396;-1.510;2022-11-14T02:41:30;65;59;
55591;PMS5003;41454;53.396;-1.510;2022-11-14T02:43:58;61;55;
55591;PMS5003;41454;53.396;-1.510;2022-11-14T02:46:25;69;55;
55591;PMS5003;41454;53.396;-1.510;2022-11-14T02:48:52;63;55;
55591;PMS5003;41454;53.396;-1.510;2022-11-14T02:51:20;67;57;
55591;PMS5003;41454;53.396;-1.510;2022-11-14T02:53:47;62;58;
55591;PMS5003;41454;53.396;-1.510;2022-11-14T02:56:14;66;57;
55591;PMS5003;41454;53.396;-1.510;2022-11-14T02:58:41;60;57;
55591;PMS5003;41454;53.396;-1.510;2022-11-14T03:01:08;55;50;
55591;PMS5003;41454;53.396;-1.510;2022-11-14T03:03:35;69;64;
55591;PMS5003;41454;53.396;-1.510;2022-11-14T03:06:03;60;57;
55591;PMS5003;41454;53.396;-1.510;2022-11-14T03:08:31;63;52;
55591;PMS5003;41454;53.396;-1.510;2022-11-14T03:11:02;72;60;
55591;PMS5003;41454;53.396;-1.510;2022-11-14T03:13:30;68;57;
55591;PMS5003;41454;53.396;-1.510;2022-11-14T03:15:57;56;50;
55591;PMS5003;41454;53.396;-1.510;2022-11-14T03:18:30;54;51;
55591;PMS5003;41454;53.396;-1.510;2022-11-14T03:20:57;61;53;
55591;PMS5003;41454;53.396;-1.510;2022-11-14T03:23:31;60;51;
55591;PMS5003;41454;53.396;-1.510;2022-11-14T03:25:58;58;50;
55591;PMS5003;41454;53.396;-1.510;2022-11-14T03:28:26;60;51;
55591;PMS5003;41454;53.396;-1.510;2022-11-14T03:30:53;59;53;
55591;PMS5003;41454;53.396;-1.510;2022-11-14T03:33:20;53;49;
55591;PMS5003;41454;53.396;-1.510;2022-11-14T03:35:48;57;50;
55591;PMS5003;41454;53.396;-1.510;2022-11-14T03:38:15;57;47;
55591;PMS5003;41454;53.396;-1.510;2022-11-14T03:40:42;54;50;
55591;PMS5003;41454;53.396;-1.510;2022-11-14T03:43:10;58;48;
55591;PMS5003;41454;53.396;-1.510;2022-11-14T03:45:38;62;52;
55591;PMS5003;41454;53.396;-1.510;2022-11-14T03:48:05;60;53;
55591;PMS5003;41454;53.396;-1.510;2022-11-14T03:50:32;62;53;
55591;PMS5003;41454;53.396;-1.510;2022-11-14T03:53:00;63;55;
55591;PMS5003;41454;53.396;-1.510;2022-11-14T03:55:28;66;56;
55591;PMS5003;41454;53.396;-1.510;2022-11-14T03:57:55;59;55;
55591;PMS5003;41454;53.396;-1.510;2022-11-14T04:00:22;66;55;
55591;PMS5003;41454;53.396;-1.510;2022-11-14T04:02:49;62;54;
55591;PMS5003;41454;53.396;-1.510;2022-11-14T04:05:17;54;48;
55591;PMS5003;41454;53.396;-1.510;2022-11-14T04:07:44;56;53;
55591;PMS5003;41454;53.396;-1.510;2022-11-14T04:10:11;58;49;
55591;PMS5003;41454;53.396;-1.510;2022-11-14T04:12:39;55;50;
55591;PMS5003;41454;53.396;-1.510;2022-11-14T04:15:06;47;44;
55591;PMS5003;41454;53.396;-1.510;2022-11-14T04:17:33;57;49;
55591;PMS5003;41454;53.396;-1.510;2022-11-14T04:20:00;52;49;
55591;PMS5003;41454;53.396;-1.510;2022-11-14T04:22:27;61;49;
55591;PMS5003;41454;53.396;-1.510;2022-11-14T04:24:54;61;51;
55591;PMS5003;41454;53.396;-1.510;2022-11-14T04:27:22;51;46;
55591;PMS5003;41454;53.396;-1.510;2022-11-14T04:29:48;64;56;
55591;PMS5003;41454;53.396;-1.510;2022-11-14T04:32:16;58;48;
55591;PMS5003;41454;53.396;-1.510;2022-11-14T04:34:43;52;48;
55591;PMS5003;41454;53.396;-1.510;2022-11-14T04:37:10;61;53;
55591;PMS5003;41454;53.396;-1.510;2022-11-14T04:39:37;52;47;
55591;PMS5003;41454;53.396;-1.510;2022-11-14T04:42:05;56;48;
55591;PMS5003;41454;53.396;-1.510;2022-11-14T04:44:32;60;54;
55591;PMS5003;41454;53.396;-1.510;2022-11-14T04:46:59;57;47;
55591;PMS5003;41454;53.396;-1.510;2022-11-14T04:49:26;57;50;
55591;PMS5003;41454;53.396;-1.510;2022-11-14T04:51:54;60;45;
55591;PMS5003;41454;53.396;-1.510;2022-11-14T04:54:21;60;51;
55591;PMS5003;41454;53.396;-1.510;2022-11-14T04:56:48;55;49;
55591;PMS5003;41454;53.396;-1.510;2022-11-14T04:59:15;60;51;
55591;PMS5003;41454;53.396;-1.510;2022-11-14T05:01:47;50;41;
55591;PMS5003;41454;53.396;-1.510;2022-11-14T05:04:15;53;49;
55591;PMS5003;41454;53.396;-1.510;2022-11-14T05:06:42;49;44;
55591;PMS5003;41454;53.396;-1.510;2022-11-14T05:09:09;46;39;
55591;PMS5003;41454;53.396;-1.510;2022-11-14T05:11:36;48;43;
55591;PMS5003;41454;53.396;-1.510;2022-11-14T05:14:03;51;44;
55591;PMS5003;41454;53.396;-1.510;2022-11-14T05:16:30;41;41;
55591;PMS5003;41454;53.396;-1.510;2022-11-14T05:18:58;49;41;
55591;PMS5003;41454;53.396;-1.510;2022-11-14T05:21:24;46;42;
55591;PMS5003;41454;53.396;-1.510;2022-11-14T05:23:52;49;45;
55591;PMS5003;41454;53.396;-1.510;2022-11-14T05:26:19;46;43;
55591;PMS5003;41454;53.396;-1.510;2022-11-14T05:28:46;51;46;
55591;PMS5003;41454;53.396;-1.510;2022-11-14T05:31:13;55;49;
55591;PMS5003;41454;53.396;-1.510;2022-11-14T05:33:41;48;43;
55591;PMS5003;41454;53.396;-1.510;2022-11-14T05:36:09;48;43;
55591;PMS5003;41454;53.396;-1.510;2022-11-14T05:38:37;47;40;
55591;PMS5003;41454;53.396;-1.510;2022-11-14T05:41:14;55;47;
55591;PMS5003;41454;53.396;-1.510;2022-11-14T05:43:43;50;46;
55591;PMS5003;41454;53.396;-1.510;2022-11-14T05:46:11;45;40;
55591;PMS5003;41454;53.396;-1.510;2022-11-14T05:48:39;46;43;
55591;PMS5003;41454;53.396;-1.510;2022-11-14T05:51:08;53;46;
55591;PMS5003;41454;53.396;-1.510;2022-11-14T05:53:37;53;49;
55591;PMS5003;41454;53.396;-1.510;2022-11-14T05:56:05;53;46;
55591;PMS5003;41454;53.396;-1.510;2022-11-14T05:58:36;49;37;
55591;PMS5003;41454;53.396;-1.510;2022-11-14T06:01:04;50;45;
55591;PMS5003;41454;53.396;-1.510;2022-11-14T06:03:34;54;46;
55591;PMS5003;41454;53.396;-1.510;2022-11-14T06:06:04;61;49;
55591;PMS5003;41454;53.396;-1.510;2022-11-14T06:08:33;51;43;
55591;PMS5003;41454;53.396;-1.510;2022-11-14T06:11:01;52;47;
55591;PMS5003;41454;53.396;-1.510;2022-11-14T06:13:29;53;46;
55591;PMS5003;41454;53.396;-1.510;2022-11-14T06:15:58;54;48;
55591;PMS5003;41454;53.396;-1.510;2022-11-14T06:18:25;55;49;
55591;PMS5003;41454;53.396;-1.510;2022-11-14T06:20:53;55;47;
55591;PMS5003;41454;53.396;-1.510;2022-11-14T06:23:24;53;49;
55591;PMS5003;41454;53.396;-1.510;2022-11-14T06:25:51;51;48;
55591;PMS5003;41454;53.396;-1.510;2022-11-14T06:28:24;50;46;
55591;PMS5003;41454;53.396;-1.510;2022-11-14T06:30:51;56;49;
55591;PMS5003;41454;53.396;-1.510;2022-11-14T06:33:22;53;43;
55591;PMS5003;41454;53.396;-1.510;2022-11-14T06:35:48;50;44;
55591;PMS5003;41454;53.396;-1.510;2022-11-14T06:38:16;49;45;
55591;PMS5003;41454;53.396;-1.510;2022-11-14T06:40:43;50;45;
55591;PMS5003;41454;53.396;-1.510;2022-11-14T06:43:10;56;46;
55591;PMS5003;41454;53.396;-1.510;2022-11-14T06:45:37;49;44;
55591;PMS5003;41454;53.396;-1.510;2022-11-14T06:48:05;51;48;
55591;PMS5003;41454;53.396;-1.510;2022-11-14T06:50:32;46;38;
55591;PMS5003;41454;53.396;-1.510;2022-11-14T06:52:59;53;49;
55591;PMS5003;41454;53.396;-1.510;2022-11-14T06:55:26;52;47;
55591;PMS5003;41454;53.396;-1.510;2022-11-14T06:57:54;56;48;
55591;PMS5003;41454;53.396;-1.510;2022-11-14T07:00:21;57;50;
55591;PMS5003;41454;53.396;-1.510;2022-11-14T07:02:49;56;50;
55591;PMS5003;41454;53.396;-1.510;2022-11-14T07:05:16;49;37;
55591;PMS5003;41454;53.396;-1.510;2022-11-14T07:07:43;55;47;
55591;PMS5003;41454;53.396;-1.510;2022-11-14T07:10:10;48;43;
55591;PMS5003;41454;53.396;-1.510;2022-11-14T07:12:37;59;51;
55591;PMS5003;41454;53.396;-1.510;2022-11-14T07:15:04;46;43;
55591;PMS5003;41454;53.396;-1.510;2022-11-14T07:17:33;50;44;
55591;PMS5003;41454;53.396;-1.510;2022-11-14T07:20:00;50;44;
55591;PMS5003;41454;53.396;-1.510;2022-11-14T07:22:27;53;47;
55591;PMS5003;41454;53.396;-1.510;2022-11-14T07:24:54;49;43;
55591;PMS5003;41454;53.396;-1.510;2022-11-14T07:27:21;46;43;
55591;PMS5003;41454;53.396;-1.510;2022-11-14T07:29:48;47;43;
55591;PMS5003;41454;53.396;-1.510;2022-11-14T07:32:15;43;38;
55591;PMS5003;41454;53.396;-1.510;2022-11-14T07:34:42;58;47;
55591;PMS5003;41454;53.396;-1.510;2022-11-14T07:37:10;50;43;
55591;PMS5003;41454;53.396;-1.510;2022-11-14T07:39:37;55;44;
55591;PMS5003;41454;53.396;-1.510;2022-11-14T07:42:05;56;43;
55591;PMS5003;41454;53.396;-1.510;2022-11-14T07:44:32;48;42;
55591;PMS5003;41454;53.396;-1.510;2022-11-14T07:46:58;46;40;
55591;PMS5003;41454;53.396;-1.510;2022-11-14T07:49:25;42;37;
55591;PMS5003;41454;53.396;-1.510;2022-11-14T07:51:52;38;36;
55591;PMS5003;41454;53.396;-1.510;2022-11-14T07:54:20;46;38;
55591;PMS5003;41454;53.396;-1.510;2022-11-14T07:56:47;46;37;
55591;PMS5003;41454;53.396;-1.510;2022-11-14T07:59:14;45;41;
55591;PMS5003;41454;53.396;-1.510;2022-11-14T08:01:42;44;36;
55591;PMS5003;41454;53.396;-1.510;2022-11-14T08:04:09;42;36;
55591;PMS5003;41454;53.396;-1.510;2022-11-14T08:06:36;44;39;
55591;PMS5003;41454;53.396;-1.510;2022-11-14T08:09:20;46;42;
55591;PMS5003;41454;53.396;-1.510;2022-11-14T08:12:02;60;49;
55591;PMS5003;41454;53.396;-1.510;2022-11-14T08:14:30;47;44;
55591;PMS5003;41454;53.396;-1.510;2022-11-14T08:17:10;48;39;
55591;PMS5003;41454;53.396;-1.510;2022-11-14T08:20:14;47;43;
55591;PMS5003;41454;53.396;-1.510;2022-11-14T08:23:33;53;46;
55591;PMS5003;41454;53.396;-1.510;2022-11-14T08:26:03;54;48;
55591;PMS5003;41454;53.396;-1.510;2022-11-14T08:28:30;45;44;
55591;PMS5003;41454;53.396;-1.510;2022-11-14T08:30:58;54;45;
55591;PMS5003;41454;53.396;-1.510;2022-11-14T08:33:27;52;45;
55591;PMS5003;41454;53.396;-1.510;2022-11-14T08:35:58;46;40;
55591;PMS5003;41454;53.396;-1.510;2022-11-14T08:38:26;43;38;
55591;PMS5003;41454;53.396;-1.510;2022-11-14T08:40:56;53;44;
55591;PMS5003;41454;53.396;-1.510;2022-11-14T08:43:24;41;39;
55591;PMS5003;41454;53.396;-1.510;2022-11-14T08:45:51;44;40;
55591;PMS5003;41454;53.396;-1.510;2022-11-14T08:48:21;48;42;
55591;PMS5003;41454;53.396;-1.510;2022-11-14T08:50:48;49;39;
55591;PMS5003;41454;53.396;-1.510;2022-11-14T08:53:15;50;47;
55591;PMS5003;41454;53.396;-1.510;2022-11-14T08:55:43;46;46;
55591;PMS5003;41454;53.396;-1.510;2022-11-14T08:58:10;50;43;
55591;PMS5003;41454;53.396;-1.510;2022-11-14T09:00:36;55;45;
55591;PMS5003;41454;53.396;-1.510;2022-11-14T09:03:06;47;42;
55591;PMS5003;41454;53.396;-1.510;2022-11-14T09:05:34;44;37;
55591;PMS5003;41454;53.396;-1.510;2022-11-14T09:08:02;51;44;
55591;PMS5003;41454;53.396;-1.510;2022-11-14T09:10:29;48;45;
55591;PMS5003;41454;53.396;-1.510;2022-11-14T09:12:56;48;43;
55591;PMS5003;41454;53.396;-1.510;2022-11-14T09:15:24;45;40;
55591;PMS5003;41454;53.396;-1.510;2022-11-14T09:17:52;42;40;
55591;PMS5003;41454;53.396;-1.510;2022-11-14T09:20:20;44;41;
55591;PMS5003;41454;53.396;-1.510;2022-11-14T09:22:47;40;36;
55591;PMS5003;41454;53.396;-1.510;2022-11-14T09:25:15;40;36;
55591;PMS5003;41454;53.396;-1.510;2022-11-14T09:27:42;43;40;
55591;PMS5003;41454;53.396;-1.510;2022-11-14T09:30:09;48;43;
55591;PMS5003;41454;53.396;-1.510;2022-11-14T09:32:38;50;41;
55591;PMS5003;41454;53.396;-1.510;2022-11-14T09:35:06;45;42;
55591;PMS5003;41454;53.396;-1.510;2022-11-14T09:37:33;45;39;
55591;PMS5003;41454;53.396;-1.510;2022-11-14T09:40:01;39;33;
55591;PMS5003;41454;53.396;-1.510;2022-11-14T09:42:32;34;32;
55591;PMS5003;41454;53.396;-1.510;2022-11-14T09:45:16;46;39;
55591;PMS5003;41454;53.396;-1.510;2022-11-14T09:47:44;40;35;
55591;PMS5003;41454;53.396;-1.510;2022-11-14T09:50:15;42;42;
55591;PMS5003;41454;53.396;-1.510;2022-11-14T09:52:45;44;40;
55591;PMS5003;41454;53.396;-1.510;2022-11-14T09:55:18;42;40;
55591;PMS5003;41454;53.396;-1.510;2022-11-14T09:57:47;40;37;
55591;PMS5003;41454;53.396;-1.510;2022-11-14T10:00:16;51;42;
55591;PMS5003;41454;53.396;-1.510;2022-11-14T10:02:50;39;36;
55591;PMS5003;41454;53.396;-1.510;2022-11-14T10:05:31;40;35;
55591;PMS5003;41454;53.396;-1.510;2022-11-14T10:08:15;47;39;
55591;PMS5003;41454;53.396;-1.510;2022-11-14T10:10:59;41;37;
55591;PMS5003;41454;53.396;-1.510;2022-11-14T10:13:38;42;37;
55591;PMS5003;41454;53.396;-1.510;2022-11-14T10:16:18;40;37;
55591;PMS5003;41454;53.396;-1.510;2022-11-14T10:18:58;48;43;
55591;PMS5003;41454;53.396;-1.510;2022-11-14T10:21:39;36;32;
55591;PMS5003;41454;53.396;-1.510;2022-11-14T10:24:22;38;36;
55591;PMS5003;41454;53.396;-1.510;2022-11-14T10:27:02;43;38;
55591;PMS5003;41454;53.396;-1.510;2022-11-14T10:29:38;35;33;
55591;PMS5003;41454;53.396;-1.510;2022-11-14T10:32:15;29;27;
55591;PMS5003;41454;53.396;-1.510;2022-11-14T10:34:57;37;33;
55591;PMS5003;41454;53.396;-1.510;2022-11-14T10:37:31;37;34;
55591;PMS5003;41454;53.396;-1.510;2022-11-14T10:40:08;37;36;
55591;PMS5003;41454;53.396;-1.510;2022-11-14T10:42:43;47;36;
55591;PMS5003;41454;53.396;-1.510;2022-11-14T10:45:16;33;32;
55591;PMS5003;41454;53.396;-1.510;2022-11-14T10:47:50;43;35;
55591;PMS5003;41454;53.396;-1.510;2022-11-14T10:50:21;35;32;
55591;PMS5003;41454;53.396;-1.510;2022-11-14T10:52:55;32;30;
55591;PMS5003;41454;53.396;-1.510;2022-11-14T10:55:27;38;35;
55591;PMS5003;41454;53.396;-1.510;2022-11-14T10:57:55;32;32;
55591;PMS5003;41454;53.396;-1.510;2022-11-14T11:00:22;40;33;
55591;PMS5003;41454;53.396;-1.510;2022-11-14T11:02:50;37;34;
55591;PMS5003;41454;53.396;-1.510;2022-11-14T11:05:20;39;35;
55591;PMS5003;41454;53.396;-1.510;2022-11-14T11:07:48;36;33;
55591;PMS5003;41454;53.396;-1.510;2022-11-14T11:10:20;35;32;
55591;PMS5003;41454;53.396;-1.510;2022-11-14T11:12:50;36;33;
55591;PMS5003;41454;53.396;-1.510;2022-11-14T11:15:20;37;34;
55591;PMS5003;41454;53.396;-1.510;2022-11-14T11:17:52;37;33;
55591;PMS5003;41454;53.396;-1.510;2022-11-14T11:20:25;38;35;
55591;PMS5003;41454;53.396;-1.510;2022-11-14T11:23:02;36;31;
55591;PMS5003;41454;53.396;-1.510;2022-11-14T11:25:32;41;36;
55591;PMS5003;41454;53.396;-1.510;2022-11-14T11:28:05;34;31;
55591;PMS5003;41454;53.396;-1.510;2022-11-14T11:30:37;32;28;
55591;PMS5003;41454;53.396;-1.510;2022-11-14T11:33:38;38;36;
55591;PMS5003;41454;53.396;-1.510;2022-11-14T11:36:06;36;35;
55591;PMS5003;41454;53.396;-1.510;2022-11-14T11:38:39;31;31;
55591;PMS5003;41454;53.396;-1.510;2022-11-14T11:41:11;41;36;
55591;PMS5003;41454;53.396;-1.510;2022-11-14T11:43:48;37;33;
55591;PMS5003;41454;53.396;-1.510;2022-11-14T11:46:21;41;38;
55591;PMS5003;41454;53.396;-1.510;2022-11-14T11:48:58;51;40;
55591;PMS5003;41454;53.396;-1.510;2022-11-14T11:51:32;36;32;
55591;PMS5003;41454;53.396;-1.510;2022-11-14T11:54:08;33;31;
55591;PMS5003;41454;53.396;-1.510;2022-11-14T11:56:39;42;34;
55591;PMS5003;41454;53.396;-1.510;2022-11-14T11:59:16;33;33;
55591;PMS5003;41454;53.396;-1.510;2022-11-14T12:01:52;34;31;
55591;PMS5003;41454;53.396;-1.510;2022-11-14T12:04:19;42;38;
55591;PMS5003;41454;53.396;-1.510;2022-11-14T12:06:48;37;32;
55591;PMS5003;41454;53.396;-1.510;2022-11-14T12:09:26;34;33;
55591;PMS5003;41454;53.396;-1.510;2022-11-14T12:11:59;36;31;
55591;PMS5003;41454;53.396;-1.510;2022-11-14T12:14:35;40;37;
55591;PMS5003;41454;53.396;-1.510;2022-11-14T12:17:34;47;41;
55591;PMS5003;41454;53.396;-1.510;2022-11-14T12:20:55;51;43;
55591;PMS5003;41454;53.396;-1.510;2022-11-14T12:23:57;45;42;
55591;PMS5003;41454;53.396;-1.510;2022-11-14T12:27:52;46;43;
55591;PMS5003;41454;53.396;-1.510;2022-11-14T12:30:27;45;42;
55591;PMS5003;41454;53.396;-1.510;2022-11-14T12:32:57;49;48;
55591;PMS5003;41454;53.396;-1.510;2022-11-14T12:35:28;43;41;
55591;PMS5003;41454;53.396;-1.510;2022-11-14T12:37:58;47;45;
55591;PMS5003;41454;53.396;-1.510;2022-11-14T12:40:29;43;39;
55591;PMS5003;41454;53.396;-1.510;2022-11-14T12:42:58;59;50;
55591;PMS5003;41454;53.396;-1.510;2022-11-14T12:46:00;42;38;
55591;PMS5003;41454;53.396;-1.510;2022-11-14T12:48:30;50;43;
55591;PMS5003;41454;53.396;-1.510;2022-11-14T12:50:59;49;45;
55591;PMS5003;41454;53.396;-1.510;2022-11-14T12:53:42;52;44;
55591;PMS5003;41454;53.396;-1.510;2022-11-14T12:56:21;55;50;
55591;PMS5003;41454;53.396;-1.510;2022-11-14T12:59:15;45;43;
55591;PMS5003;41454;53.396;-1.510;2022-11-14T13:01:56;52;46;
55591;PMS5003;41454;53.396;-1.510;2022-11-14T13:04:37;50;42;
55591;PMS5003;41454;53.396;-1.510;2022-11-14T13:07:16;43;42;
55591;PMS5003;41454;53.396;-1.510;2022-11-14T13:09:58;42;39;
55591;PMS5003;41454;53.396;-1.510;2022-11-14T13:12:38;50;41;
55591;PMS5003;41454;53.396;-1.510;2022-11-14T13:15:18;53;42;
55591;PMS5003;41454;53.396;-1.510;2022-11-14T13:17:58;44;44;
55591;PMS5003;41454;53.396;-1.510;2022-11-14T13:20:30;50;42;
55591;PMS5003;41454;53.396;-1.510;2022-11-14T13:22:59;38;35;
55591;PMS5003;41454;53.396;-1.510;2022-11-14T13:25:27;45;39;
55591;PMS5003;41454;53.396;-1.510;2022-11-14T13:27:54;40;36;
55591;PMS5003;41454;53.396;-1.510;2022-11-14T13:30:45;43;38;
55591;PMS5003;41454;53.396;-1.510;2022-11-14T13:33:39;37;34;
55591;PMS5003;41454;53.396;-1.510;2022-11-14T13:36:07;45;39;
55591;PMS5003;41454;53.396;-1.510;2022-11-14T13:38:50;38;33;
55591;PMS5003;41454;53.396;-1.510;2022-11-14T13:41:42;46;40;
55591;PMS5003;41454;53.396;-1.510;2022-11-14T13:44:58;41;36;
55591;PMS5003;41454;53.396;-1.510;2022-11-14T13:48:18;39;36;
55591;PMS5003;41454;53.396;-1.510;2022-11-14T13:50:58;45;40;
55591;PMS5003;41454;53.396;-1.510;2022-11-14T13:53:31;42;35;
55591;PMS5003;41454;53.396;-1.510;2022-11-14T13:56:00;40;37;
55591;PMS5003;41454;53.396;-1.510;2022-11-14T13:58:48;44;38;
55591;PMS5003;41454;53.396;-1.510;2022-11-14T14:01:30;48;41;
55591;PMS5003;41454;53.396;-1.510;2022-11-14T14:04:13;52;46;
55591;PMS5003;41454;53.396;-1.510;2022-11-14T14:06:58;41;36;
55591;PMS5003;41454;53.396;-1.510;2022-11-14T14:09:36;37;31;
55591;PMS5003;41454;53.396;-1.510;2022-11-14T14:12:14;44;39;
55591;PMS5003;41454;53.396;-1.510;2022-11-14T14:14:57;39;35;
55591;PMS5003;41454;53.396;-1.510;2022-11-14T14:17:35;39;34;
55591;PMS5003;41454;53.396;-1.510;2022-11-14T14:20:15;42;37;
55591;PMS5003;41454;53.396;-1.510;2022-11-14T14:22:55;36;31;
55591;PMS5003;41454;53.396;-1.510;2022-11-14T14:25:30;35;32;
55591;PMS5003;41454;53.396;-1.510;2022-11-14T14:28:08;37;31;
55591;PMS5003;41454;53.396;-1.510;2022-11-14T14:31:08;39;32;
55591;PMS5003;41454;53.396;-1.510;2022-11-14T14:33:38;38;34;
55591;PMS5003;41454;53.396;-1.510;2022-11-14T14:36:15;29;27;
55591;PMS5003;41454;53.396;-1.510;2022-11-14T14:38:45;27;25;
55591;PMS5003;41454;53.396;-1.510;2022-11-14T14:41:13;30;28;
55591;PMS5003;41454;53.396;-1.510;2022-11-14T14:43:52;28;27;
55591;PMS5003;41454;53.396;-1.510;2022-11-14T14:46:25;28;25;
55591;PMS5003;41454;53.396;-1.510;2022-11-14T14:48:54;25;24;
55591;PMS5003;41454;53.396;-1.510;2022-11-14T14:51:31;31;30;
55591;PMS5003;41454;53.396;-1.510;2022-11-14T14:54:00;32;27;
55591;PMS5003;41454;53.396;-1.510;2022-11-14T14:56:28;25;25;
55591;PMS5003;41454;53.396;-1.510;2022-11-14T14:58:55;30;28;
55591;PMS5003;41454;53.396;-1.510;2022-11-14T15:01:24;32;28;
55591;PMS5003;41454;53.396;-1.510;2022-11-14T15:03:56;30;25;
55591;PMS5003;41454;53.396;-1.510;2022-11-14T15:06:28;30;28;
55591;PMS5003;41454;53.396;-1.510;2022-11-14T15:08:59;30;28;
55591;PMS5003;41454;53.396;-1.510;2022-11-14T15:11:28;31;28;
55591;PMS5003;41454;53.396;-1.510;2022-11-14T15:13:56;27;27;
55591;PMS5003;41454;53.396;-1.510;2022-11-14T15:16:24;29;29;
55591;PMS5003;41454;53.396;-1.510;2022-11-14T15:18:53;27;27;
55591;PMS5003;41454;53.396;-1.510;2022-11-14T15:21:24;24;23;
55591;PMS5003;41454;53.396;-1.510;2022-11-14T15:23:57;31;27;
55591;PMS5003;41454;53.396;-1.510;2022-11-14T15:26:26;27;24;
55591;PMS5003;41454;53.396;-1.510;2022-11-14T15:29:03;25;24;
55591;PMS5003;41454;53.396;-1.510;2022-11-14T15:31:31;22;20;
55591;PMS5003;41454;53.396;-1.510;2022-11-14T15:34:02;29;25;
55591;PMS5003;41454;53.396;-1.510;2022-11-14T15:36:31;30;27;
55591;PMS5003;41454;53.396;-1.510;2022-11-14T15:39:00;32;29;
55591;PMS5003;41454;53.396;-1.510;2022-11-14T15:41:28;28;26;
55591;PMS5003;41454;53.396;-1.510;2022-11-14T15:43:56;30;27;
55591;PMS5003;41454;53.396;-1.510;2022-11-14T15:46:25;28;26;
55591;PMS5003;41454;53.396;-1.510;2022-11-14T15:48:55;24;23;
55591;PMS5003;41454;53.396;-1.510;2022-11-14T15:51:55;24;23;
55591;PMS5003;41454;53.396;-1.510;2022-11-14T15:54:24;25;25;
55591;PMS5003;41454;53.396;-1.510;2022-11-14T15:56:54;26;26;
55591;PMS5003;41454;53.396;-1.510;2022-11-14T15:59:24;22;20;
55591;PMS5003;41454;53.396;-1.510;2022-11-14T16:01:53;27;23;
55591;PMS5003;41454;53.396;-1.510;2022-11-14T16:04:25;22;19;
55591;PMS5003;41454;53.396;-1.510;2022-11-14T16:06:55;20;18;
55591;PMS5003;41454;53.396;-1.510;2022-11-14T16:09:22;20;18;
55591;PMS5003;41454;53.396;-1.510;2022-11-14T16:11:49;19;18;
55591;PMS5003;41454;53.396;-1.510;2022-11-14T16:14:16;18;16;
55591;PMS5003;41454;53.396;-1.510;2022-11-14T16:16:43;16;16;
55591;PMS5003;41454;53.396;-1.510;2022-11-14T16:19:12;19;15;
55591;PMS5003;41454;53.396;-1.510;2022-11-14T16:21:40;22;18;
55591;PMS5003;41454;53.396;-1.510;2022-11-14T16:24:11;15;15;
55591;PMS5003;41454;53.396;-1.510;2022-11-14T16:26:42;22;19;
55591;PMS5003;41454;53.396;-1.510;2022-11-14T16:29:09;21;20;
55591;PMS5003;41454;53.396;-1.510;2022-11-14T16:31:36;16;16;